PWSweather.com
Personal Weather Stations
Station Observations
IBRABANT12
Leuven, BlandenBE 3052

LeuvenBlandenBE 3052

Lat: 50.8252218, Lon: 4.709682799999996

Elevation: 193

Station Type: Davis Vantage Vue

http://www.weerstationblanden.be

Latest ConditionsUpdated 11:30:13 AM GMT+01:01 Thursday, Nov 23, 2017
Currently Today's Max Today's Min Today's Average
Temperature 57.8°F14.3°C 57.8°F14.3°C 53.4°F11.9°C 55.3°F12.9°C
Dew Point 49.6°F9.8°C 49.6°F9.8°C 40.8°F4.9°C 43.9°F6.6°C
Winds 15.1 mph SSW24.3 kmh SSW 22.4 mph SW36.0 kmh SW - 12.0 mph 19.3 kmh
Wind Gusts 26.0 mph41.8 kmh 31.0 mph49.9 kmh - -
Humidity 74% 74% 59% 65%
Pressure 29.52 in999.7 mb 29.52 in999.7 mb 29.41 in995.9 mb -
Hour Temp Dew Point Humidity Winds Wind Gusts Pressure Precip Precip Rate Daily Precip Total
11:30 AM 57.8°F14.3°C 49.6°F9.8°C 74% 15.1 mph SSW24.3 kmh SSW 26.0 mph41.8 kmh 29.52 in999.7 mb - 0.00 in0.0 mm 0.00 in0.0 mm
11:20 AM 57.6°F14.2°C 49.4°F9.7°C 74% 12.2 mph SW19.6 kmh SW 14.0 mph22.5 kmh 29.52 in999.7 mb - 0.00 in0.0 mm 0.00 in0.0 mm
11:10 AM 57.3°F14.1°C 49.1°F9.5°C 74% 12.5 mph SW20.1 kmh SW 16.0 mph25.7 kmh 29.52 in999.7 mb - 0.00 in0.0 mm 0.00 in0.0 mm
11:00 AM 57.4°F14.1°C 48.8°F9.3°C 73% 12.4 mph SW20.0 kmh SW 21.0 mph33.8 kmh 29.52 in999.7 mb - 0.00 in0.0 mm 0.00 in0.0 mm
10:50 AM 57.4°F14.1°C 48.4°F9.1°C 72% 13.1 mph WSW21.1 kmh WSW 17.0 mph27.4 kmh 29.51 in999.3 mb - 0.00 in0.0 mm 0.00 in0.0 mm
10:40 AM 57.4°F14.1°C 48.1°F8.9°C 71% 15.9 mph SW25.6 kmh SW 16.0 mph25.7 kmh 29.51 in999.3 mb - 0.00 in0.0 mm 0.00 in0.0 mm
10:30 AM 57.4°F14.1°C 48.1°F8.9°C 71% 14.3 mph WSW23.0 kmh WSW 23.0 mph37.0 kmh 29.50 in999.0 mb - 0.00 in0.0 mm 0.00 in0.0 mm
10:20 AM 57.2°F14.0°C 47.9°F8.8°C 71% 14.5 mph SSW23.3 kmh SSW 24.0 mph38.6 kmh 29.49 in998.6 mb - 0.00 in0.0 mm 0.00 in0.0 mm
10:10 AM 57.1°F13.9°C 47.8°F8.8°C 71% 14.4 mph S23.2 kmh S 19.0 mph30.6 kmh 29.49 in998.6 mb - 0.00 in0.0 mm 0.00 in0.0 mm
10:00 AM 56.9°F13.8°C 48.0°F8.9°C 72% 13.0 mph S20.9 kmh S 18.0 mph29.0 kmh 29.48 in998.3 mb - 0.00 in0.0 mm 0.00 in0.0 mm
09:50 AM 57.1°F13.9°C 47.8°F8.8°C 71% 22.4 mph SW36.0 kmh SW 31.0 mph49.9 kmh 29.50 in999.0 mb - 0.00 in0.0 mm 0.00 in0.0 mm
09:40 AM 57.4°F14.1°C 47.3°F8.5°C 69% 20.5 mph SW33.0 kmh SW 30.0 mph48.3 kmh 29.48 in998.3 mb - 0.00 in0.0 mm 0.00 in0.0 mm
09:00 AM 56.7°F13.7°C 46.6°F8.1°C 69% 10.3 mph SSW16.6 kmh SSW 20.0 mph32.2 kmh 29.45 in997.3 mb - 0.00 in0.0 mm 0.00 in0.0 mm
08:50 AM 56.7°F13.7°C 46.6°F8.1°C 69% 14.8 mph SW23.8 kmh SW 21.0 mph33.8 kmh 29.45 in997.3 mb - 0.00 in0.0 mm 0.00 in0.0 mm
08:40 AM 56.3°F13.5°C 46.3°F7.9°C 69% 16.5 mph SSW26.6 kmh SSW 26.0 mph41.8 kmh 29.44 in997.0 mb - 0.00 in0.0 mm 0.00 in0.0 mm
08:30 AM 55.9°F13.3°C 45.9°F7.7°C 69% 13.9 mph SW22.4 kmh SW 21.0 mph33.8 kmh 29.44 in997.0 mb - 0.00 in0.0 mm 0.00 in0.0 mm
08:20 AM 56.0°F13.3°C 45.9°F7.7°C 69% 15.4 mph SSW24.8 kmh SSW 25.0 mph40.2 kmh 29.44 in997.0 mb - 0.00 in0.0 mm 0.00 in0.0 mm
08:10 AM 56.2°F13.4°C 45.4°F7.4°C 67% 13.7 mph SW22.0 kmh SW 21.0 mph33.8 kmh 29.43 in996.6 mb - 0.00 in0.0 mm 0.00 in0.0 mm
08:00 AM 56.2°F13.4°C 45.4°F7.4°C 67% 16.5 mph SW26.6 kmh SW 21.0 mph33.8 kmh 29.43 in996.6 mb - 0.00 in0.0 mm 0.00 in0.0 mm
07:50 AM 55.9°F13.3°C 45.1°F7.3°C 67% 13.5 mph S21.7 kmh S 23.0 mph37.0 kmh 29.42 in996.3 mb - 0.00 in0.0 mm 0.00 in0.0 mm
07:40 AM 55.9°F13.3°C 45.1°F7.3°C 67% 14.7 mph SSE23.7 kmh SSE 16.0 mph25.7 kmh 29.41 in995.9 mb - 0.00 in0.0 mm 0.00 in0.0 mm
07:30 AM 55.9°F13.3°C 44.7°F7.1°C 66% 13.0 mph S20.9 kmh S 19.0 mph30.6 kmh 29.41 in995.9 mb - 0.00 in0.0 mm 0.00 in0.0 mm
07:20 AM 55.8°F13.2°C 44.6°F7.0°C 66% 14.9 mph SE24.0 kmh SE 18.0 mph29.0 kmh 29.41 in995.9 mb - 0.00 in0.0 mm 0.00 in0.0 mm
07:10 AM 55.5°F13.1°C 44.3°F6.8°C 66% 14.9 mph SW24.0 kmh SW 19.0 mph30.6 kmh 29.42 in996.3 mb - 0.00 in0.0 mm 0.00 in0.0 mm
07:00 AM 55.3°F12.9°C 44.1°F6.7°C 66% 11.5 mph S18.5 kmh S 17.0 mph27.4 kmh 29.41 in995.9 mb - 0.00 in0.0 mm 0.00 in0.0 mm
06:50 AM 55.3°F12.9°C 44.1°F6.7°C 66% 15.8 mph SSW25.4 kmh SSW 22.0 mph35.4 kmh 29.41 in995.9 mb - 0.00 in0.0 mm 0.00 in0.0 mm
06:40 AM 55.3°F12.9°C 43.7°F6.5°C 65% 14.3 mph SW23.0 kmh SW 27.0 mph43.5 kmh 29.43 in996.6 mb - 0.00 in0.0 mm 0.00 in0.0 mm
06:30 AM 55.5°F13.1°C 43.9°F6.6°C 65% 16.3 mph SSW26.2 kmh SSW 22.0 mph35.4 kmh 29.41 in995.9 mb - 0.00 in0.0 mm 0.00 in0.0 mm
06:20 AM 55.4°F13.0°C 43.8°F6.6°C 65% 13.4 mph S21.6 kmh S 16.0 mph25.7 kmh 29.41 in995.9 mb - 0.00 in0.0 mm 0.00 in0.0 mm
06:10 AM 55.4°F13.0°C 43.8°F6.6°C 65% 10.7 mph SSW17.2 kmh SSW 19.0 mph30.6 kmh 29.42 in996.3 mb - 0.00 in0.0 mm 0.00 in0.0 mm
06:00 AM 55.4°F13.0°C 43.4°F6.3°C 64% 10.4 mph SW16.7 kmh SW 15.0 mph24.1 kmh 29.42 in996.3 mb - 0.00 in0.0 mm 0.00 in0.0 mm
05:50 AM 55.4°F13.0°C 43.4°F6.3°C 64% 13.3 mph SW21.4 kmh SW 23.0 mph37.0 kmh 29.43 in996.6 mb - 0.00 in0.0 mm 0.00 in0.0 mm
05:40 AM 55.2°F12.9°C 43.2°F6.2°C 64% 8.7 mph SW14.0 kmh SW 15.0 mph24.1 kmh 29.43 in996.6 mb - 0.00 in0.0 mm 0.00 in0.0 mm
05:30 AM 55.1°F12.8°C 43.1°F6.2°C 64% 7.8 mph SW12.6 kmh SW 12.0 mph19.3 kmh 29.43 in996.6 mb - 0.00 in0.0 mm 0.00 in0.0 mm
05:20 AM 55.1°F12.8°C 43.1°F6.2°C 64% 8.8 mph SW14.2 kmh SW 14.0 mph22.5 kmh 29.43 in996.6 mb - 0.00 in0.0 mm 0.00 in0.0 mm
05:10 AM 55.0°F12.8°C 43.0°F6.1°C 64% 9.4 mph S15.1 kmh S 14.0 mph22.5 kmh 29.43 in996.6 mb - 0.00 in0.0 mm 0.00 in0.0 mm
05:00 AM 54.8°F12.7°C 42.8°F6.0°C 64% 12.9 mph SSW20.8 kmh SSW 24.0 mph38.6 kmh 29.43 in996.6 mb - 0.00 in0.0 mm 0.00 in0.0 mm
04:50 AM 54.3°F12.4°C 42.8°F6.0°C 65% 9.7 mph SW15.6 kmh SW 12.0 mph19.3 kmh 29.44 in997.0 mb - 0.00 in0.0 mm 0.00 in0.0 mm
04:40 AM 54.4°F12.4°C 42.9°F6.1°C 65% 12.8 mph SSW20.6 kmh SSW 18.0 mph29.0 kmh 29.45 in997.3 mb - 0.00 in0.0 mm 0.00 in0.0 mm
04:30 AM 54.3°F12.4°C 42.4°F5.8°C 64% 11.6 mph SSE18.7 kmh SSE 16.0 mph25.7 kmh 29.44 in997.0 mb - 0.00 in0.0 mm 0.00 in0.0 mm
04:20 AM 54.3°F12.4°C 42.8°F6.0°C 65% 8.8 mph SW14.2 kmh SW 14.0 mph22.5 kmh 29.45 in997.3 mb - 0.00 in0.0 mm 0.00 in0.0 mm
04:10 AM 54.2°F12.3°C 42.3°F5.7°C 64% 10.4 mph SW16.7 kmh SW 15.0 mph24.1 kmh 29.46 in997.6 mb - 0.00 in0.0 mm 0.00 in0.0 mm
04:00 AM 54.1°F12.3°C 42.2°F5.7°C 64% 11.4 mph SW18.3 kmh SW 15.0 mph24.1 kmh 29.46 in997.6 mb - 0.00 in0.0 mm 0.00 in0.0 mm
03:50 AM 54.1°F12.3°C 42.2°F5.7°C 64% 8.4 mph SW13.5 kmh SW 10.0 mph16.1 kmh 29.45 in997.3 mb - 0.00 in0.0 mm 0.00 in0.0 mm
03:40 AM 54.2°F12.3°C 41.9°F5.5°C 63% 10.6 mph SW17.1 kmh SW 17.0 mph27.4 kmh 29.45 in997.3 mb - 0.00 in0.0 mm 0.00 in0.0 mm
03:30 AM 54.2°F12.3°C 41.9°F5.5°C 63% 12.7 mph SSW20.4 kmh SSW 15.0 mph24.1 kmh 29.47 in998.0 mb - 0.00 in0.0 mm 0.00 in0.0 mm
03:20 AM 54.4°F12.4°C 41.6°F5.3°C 62% 10.5 mph SW16.9 kmh SW 16.0 mph25.7 kmh 29.46 in997.6 mb - 0.00 in0.0 mm 0.00 in0.0 mm
03:10 AM 54.3°F12.4°C 41.6°F5.3°C 62% 10.9 mph SW17.5 kmh SW 18.0 mph29.0 kmh 29.46 in997.6 mb - 0.00 in0.0 mm 0.00 in0.0 mm
03:00 AM 54.3°F12.4°C 41.2°F5.1°C 61% 12.2 mph SW19.6 kmh SW 17.0 mph27.4 kmh 29.46 in997.6 mb - 0.00 in0.0 mm 0.00 in0.0 mm
02:50 AM 54.4°F12.4°C 41.2°F5.1°C 61% 12.1 mph SSW19.5 kmh SSW 14.0 mph22.5 kmh 29.46 in997.6 mb - 0.00 in0.0 mm 0.00 in0.0 mm
02:40 AM 54.3°F12.4°C 41.6°F5.3°C 62% 6.7 mph SW10.8 kmh SW 12.0 mph19.3 kmh 29.46 in997.6 mb - 0.00 in0.0 mm 0.00 in0.0 mm
02:30 AM 54.0°F12.2°C 41.3°F5.2°C 62% 10.1 mph SW16.3 kmh SW 14.0 mph22.5 kmh 29.47 in998.0 mb - 0.00 in0.0 mm 0.00 in0.0 mm
02:20 AM 54.0°F12.2°C 41.3°F5.2°C 62% 8.3 mph SE13.4 kmh SE 14.0 mph22.5 kmh 29.47 in998.0 mb - 0.00 in0.0 mm 0.00 in0.0 mm
02:10 AM 53.9°F12.2°C 41.2°F5.1°C 62% 7.4 mph SW11.9 kmh SW 8.0 mph12.9 kmh 29.46 in997.6 mb - 0.00 in0.0 mm 0.00 in0.0 mm
02:00 AM 53.8°F12.1°C 41.1°F5.1°C 62% 10.9 mph SW17.5 kmh SW 13.0 mph20.9 kmh 29.46 in997.6 mb - 0.00 in0.0 mm 0.00 in0.0 mm
01:50 AM 53.6°F12.0°C 41.3°F5.2°C 63% 9.1 mph SW14.6 kmh SW 10.0 mph16.1 kmh 29.47 in998.0 mb - 0.00 in0.0 mm 0.00 in0.0 mm
01:40 AM 53.4°F11.9°C 41.1°F5.1°C 63% 8.2 mph S13.2 kmh S 12.0 mph19.3 kmh 29.47 in998.0 mb - 0.00 in0.0 mm 0.00 in0.0 mm
01:30 AM 53.4°F11.9°C 41.1°F5.1°C 63% 10.2 mph SSW16.4 kmh SSW 12.0 mph19.3 kmh 29.48 in998.3 mb - 0.00 in0.0 mm 0.00 in0.0 mm
01:20 AM 53.6°F12.0°C 41.3°F5.2°C 63% 9.0 mph SW14.5 kmh SW 13.0 mph20.9 kmh 29.48 in998.3 mb - 0.00 in0.0 mm 0.00 in0.0 mm
01:10 AM 53.7°F12.1°C 41.4°F5.2°C 63% 8.3 mph S13.4 kmh S 15.0 mph24.1 kmh 29.48 in998.3 mb - 0.00 in0.0 mm 0.00 in0.0 mm
01:00 AM 53.9°F12.2°C 41.2°F5.1°C 62% 9.2 mph S14.8 kmh S 13.0 mph20.9 kmh 29.49 in998.6 mb - 0.00 in0.0 mm 0.00 in0.0 mm
12:50 AM 54.0°F12.2°C 41.3°F5.2°C 62% 9.6 mph SW15.4 kmh SW 14.0 mph22.5 kmh 29.49 in998.6 mb - 0.00 in0.0 mm 0.00 in0.0 mm
12:40 AM 54.2°F12.3°C 41.0°F5.0°C 61% 10.7 mph SSW17.2 kmh SSW 15.0 mph24.1 kmh 29.49 in998.6 mb - 0.00 in0.0 mm 0.00 in0.0 mm
12:30 AM 54.3°F12.4°C 41.1°F5.1°C 61% 8.3 mph SSW13.4 kmh SSW 17.0 mph27.4 kmh 29.50 in999.0 mb - 0.00 in0.0 mm 0.00 in0.0 mm
12:20 AM 54.5°F12.5°C 40.9°F4.9°C 60% 11.8 mph S19.0 kmh S 13.0 mph20.9 kmh 29.50 in999.0 mb - 0.00 in0.0 mm 0.00 in0.0 mm
12:10 AM 54.7°F12.6°C 41.1°F5.1°C 60% 10.7 mph SSW17.2 kmh SSW 16.0 mph25.7 kmh 29.50 in999.0 mb - 0.00 in0.0 mm 0.00 in0.0 mm
12:00 AM 54.9°F12.7°C 40.8°F4.9°C 59% 10.4 mph SSW16.7 kmh SSW 15.0 mph24.1 kmh 29.51 in999.3 mb - 0.00 in0.0 mm 0.00 in0.0 mm